UNR Ag. Experiment Farm, Sparks, Nevada Weather observations

Data are for 10 minute period ending at time listed.
 Day   Time   Solar   Ave.   Ave.  Ave.  Vector  Max.   Baro.   Total    
  of    of     Rad.   Air    Rel.  Wind   Wind   Wind  Press.  Precip.   
Year   Day            Temp.  Hum.  Speed  Dir.   Gust                    
2016   (PST)  Kw/m2    F      %     mph   deg.    mph    mb.     in.     
-------------------------------------------------------------------------
 341    0:20   0.00   31.7    34    4.6    48     5.8   862.0    0.00 
 341    0:30   0.00   29.8    36    4.2   119     6.4   861.8    0.00 
 341    0:40   0.00   30.6    36    4.0    72     6.5   861.7    0.00 
 341    0:50   0.00   31.3    34    2.0   103     3.9   861.7    0.00 
 341    1:00   0.00   30.4    35    2.3    82     4.7   861.6    0.00 
 341    1:10   0.00   29.4    38    3.1   121     5.2   861.5    0.00 
 341    1:20   0.00   27.8    40    3.7   206     8.2   861.4    0.00 
 341    1:30   0.00   28.6    38    2.5   176     6.6   861.3    0.00 
 341    1:40   0.00   27.4    41    2.3   106     5.0   861.1    0.00 
 341    1:50   0.00   25.4    45    3.9    53     6.6   861.0    0.00 
 341    2:00   0.00   27.1    43    3.3    43     7.5   861.0    0.00 
 341    2:10   0.00   28.7    39    4.2   156     6.6   860.9    0.00 
 341    2:20   0.00   25.8    45    2.2   321     5.5   860.9    0.00 
 341    2:30   0.00   26.2    44    1.4   274     3.7   860.8    0.00 
 341    2:40   0.00   24.2    50    2.7    78     7.1   860.7    0.00 
 341    2:50   0.00   24.1    51    1.9   132     4.3   860.6    0.00 
 341    3:00   0.00   24.1    50    1.2   174     2.9   860.4    0.00 
 341    3:10   0.00   23.5    51    1.9   286     6.4   860.4    0.00 
 341    3:20   0.00   23.3    52    1.0   297     4.2   860.2    0.00 
 341    3:30   0.00   20.3    59    2.5    73     4.7   860.3    0.00 
 341    3:40   0.00   19.4    63    0.7   266     5.4   860.3    0.00 
 341    3:50   0.00   20.3    60    1.9   108     4.8   860.3    0.00 
 341    4:00   0.00   20.7    62    2.5   193     4.9   860.2    0.00 
 341    4:10   0.00   21.0    60    1.8   206     7.4   860.2    0.00 
 341    4:20   0.00   22.0    58    2.2   129     4.7   860.3    0.00 
 341    4:30   0.00   18.7    69    3.0   114     5.4   860.2    0.00 
 341    4:40   0.00   18.7    68    2.5   267     6.3   860.2    0.00 
 341    4:50   0.00   21.8    61    1.4   260     6.4   860.0    0.00 
 341    5:00   0.00   22.8    56    1.9   358     4.9   860.1    0.00 
 341    5:10   0.00   19.6    62    1.7   175     5.1   860.2    0.00 
 341    5:20   0.00   22.7    57    3.8   355     8.7   860.2    0.00 
 341    5:30   0.00   25.3    52    2.6   114     6.4   860.2    0.00 
 341    5:40   0.00   26.2    52    4.1    23     8.2   860.2    0.00 
 341    5:50   0.00   25.8    55    7.0    40    10.9   860.2    0.00 
 341    6:00   0.00   25.7    55    3.4   360     6.6   860.3    0.00 
 341    6:10   0.00   25.2    56    4.0    14     6.8   860.3    0.00 
 341    6:20   0.00   25.2    56    2.2   130     4.0   860.4    0.00 
 341    6:30   0.00   23.9    60    3.6    82     6.7   860.5    0.00 
 341    6:40   0.00   25.4    59    6.3    43    19.1   860.3    0.00 
 341    6:50   0.00   27.7    52    4.2   357     6.4   860.3    0.00 
 341    7:00   0.00   27.8    51    1.8   341     3.4   860.3    0.00 
 341    7:10   0.00   28.1    49    4.5     8     9.0   860.4    0.00 
 341    7:20   0.01   27.0    52    4.5    13     8.5   860.6    0.00 
 341    7:30   0.01   26.9    54    3.6    61     5.9   860.7    0.00 
 341    7:40   0.01   25.8    57    5.8    53     8.3   860.5    0.00 
 341    7:50   0.05   25.8    59    6.2    46     8.8   860.4    0.00 
 341    8:00   0.08   26.7    60    4.9    40    10.1   860.4    0.00 
 341    8:10   0.10   28.0    60    9.0    37    12.0   860.4    0.00 
 341    8:20   0.12   29.1    59    8.2    26    11.5   860.4    0.00 
 341    8:30   0.14   30.1    57    7.8    30    11.2   860.5    0.00 
 341    8:40   0.17   30.7    55   10.0    29    13.5   860.7    0.00 
 341    8:50   0.19   31.0    55    9.6    30    13.0   860.8    0.00 
 341    9:00   0.21   32.1    54   10.1    37    14.5   860.9    0.00 
 341    9:10   0.23   33.1    53    9.3    39    13.1   860.9    0.00 
 341    9:20   0.25   34.4    49    9.1    45    13.0   861.0    0.00 
 341    9:30   0.27   35.0    48    8.0    46    12.1   861.1    0.00 
 341    9:40   0.29   36.1    47    9.3    37    13.8   861.2    0.00 
 341    9:50   0.31   37.8    44    9.6   349    15.0   861.1    0.00 
 341   10:00   0.33   38.7    42   11.3   345    16.8   861.1    0.00 
 341   10:10   0.34   39.4    40    9.5   340    14.4   861.1    0.00 
 341   10:20   0.36   39.7    39   10.7   340    21.1   861.1    0.00 
 341   10:30   0.37   39.4    41   11.1   360    16.0   861.1    0.00 
 341   10:40   0.38   39.6    41   10.2    13    15.1   861.0    0.00 
 341   10:50   0.39   39.7    41   11.1    21    16.2   860.9    0.00 
 341   11:00   0.40   40.1    42   10.9    13    15.8   860.8    0.00 
 341   11:10   0.42   40.3    41   11.4   352    15.5   860.9    0.00 
 341   11:20   0.44   41.4    35   11.5   324    17.9   860.8    0.00 
 341   11:30   0.48   42.5    32   13.4   301    19.6   860.8    0.00 
 341   11:40   0.39   42.0    33   12.8   290    18.7   860.8    0.00 
 341   11:50   0.23   40.7    34   15.6   273    21.8   860.8    0.00 
 341   12:00   0.31   41.2    34   15.2   275    21.7   860.8    0.00 
 341   12:10   0.31   41.4    34   11.8   275    18.9   860.7    0.00 
 341   12:20   0.33   41.6    34   13.1   264    19.7   860.6    0.00 
 341   12:30   0.35   42.0    34   13.6   284    21.3   860.5    0.00 
 341   12:40   0.38   41.7    35   13.4   278    19.3   860.4    0.00 
 341   12:50   0.18   41.6    34   14.4   265    21.5   860.4    0.00 
 341   13:00   0.30   41.7    33   14.4   262    21.9   860.3    0.00 
 341   13:10   0.45   42.2    33   14.1   271    20.8   860.4    0.00 
 341   13:20   0.30   42.3    34   15.3   273    24.2   860.4    0.00 
 341   13:30   0.08   40.0    39   14.4   270    20.8   860.5    0.00 
 341   13:40   0.16   39.8    40   13.4   277    20.9   860.5    0.00 
 341   13:50   0.20   40.6    37   13.1   259    23.8   860.5    0.00 
 341   14:00   0.33   41.8    36   11.7   273    21.7   860.6    0.00 
 341   14:10   0.13   40.4    38   14.1   274    20.3   860.5    0.00 
 341   14:20   0.10   40.0    39   11.3   268    19.0   860.6    0.00 
 341   14:30   0.14   39.7    40   11.4   280    15.4   860.6    0.00 
 341   14:40   0.35   41.3    38    9.7   298    15.8   860.6    0.00 
 341   14:50   0.22   41.6    36   10.7   284    19.1   860.7    0.00 
 341   15:00   0.07   39.7    38   11.1   287    17.8   860.9    0.00 
 341   15:10   0.06   38.5    42    9.6   306    15.6   861.1    0.00 
 341   15:20   0.05   38.5    42    8.9   298    14.4   861.3    0.00 
 341   15:30   0.11   38.1    43    7.4   311    12.2   861.4    0.00 
 341   15:40   0.02   38.1    44    8.7   291    13.8   861.6    0.00 
 341   15:50   0.03   37.9    43    5.4   322     9.7   861.7    0.00 
 341   16:00   0.03   37.4    43   11.1   325    19.1   861.7    0.00 
 341   16:10   0.01   36.3    45   11.2   334    16.6   861.9    0.00 
 341   16:20   0.01   36.1    46   11.4   336    16.6   862.0    0.00 
 341   16:30   0.00   36.0    45   10.7   335    18.0   862.2    0.00 
 341   16:40   0.00   35.8    46   10.6   330    15.4   862.4    0.00 
 341   16:50   0.00   35.6    46   10.5   334    16.4   862.5    0.00 
 341   17:00   0.00   35.5    46    9.8   325    14.8   862.6    0.00 
 341   17:10   0.00   35.3    46    9.8   315    15.1   862.6    0.00 
 341   17:20   0.00   34.7    48    9.7   313    14.5   862.7    0.00 
 341   17:30   0.00   34.4    49    8.5   312    13.2   862.8    0.00 
 341   17:40   0.00   34.0    51    8.0   319    12.8   862.9    0.00 
 341   17:50   0.00   34.3    52    8.4   331    13.7   863.0    0.00 
 341   18:00   0.00   34.3    53    9.9   335    13.8   863.2    0.00 
 341   18:10   0.00   33.0    57    5.5   336     8.6   863.4    0.00 
 341   18:20   0.00   32.9    57    4.8   354     7.8   863.5    0.00 
 341   18:30   0.00   32.0    58    2.3    18     3.5   863.5    0.00 
 341   18:40   0.00   31.0    61    1.7    12     2.9   863.7    0.00 
 341   18:50   0.00   31.6    59    1.9   350     5.3   863.8    0.00 
 341   19:00   0.00   31.4    57    3.6   348     5.7   863.9    0.00 
 341   19:10   0.00   30.4    58    0.8   317     3.7   864.0    0.00 
 341   19:20   0.00   29.5    59    0.8   360     2.7   864.1    0.00 
 341   19:30   0.00   29.4    60    1.6    78     3.4   864.1    0.00 
 341   19:40   0.00   29.3    60    0.8   337     2.9   864.2    0.00 
 341   19:50   0.00   28.7    59    2.5   209     4.7   864.3    0.00 
 341   20:00   0.00   28.3    62    2.0   178     3.2   864.5    0.00 
 341   20:10   0.00   28.3    62    0.4   115     2.3   864.6    0.00 
 341   20:20   0.00   28.6    62    2.5    70     5.3   864.7    0.00 
 341   20:30   0.00   27.3    65    1.9    85     3.9   864.9    0.00 
 341   20:40   0.00   27.6    64    2.9    47     4.7   865.0    0.00 
 341   20:50   0.00   27.5    64    4.1    26     7.0   865.1    0.00 
 341   21:00   0.00   28.1    64    5.8   357     9.3   865.2    0.00 
 341   21:10   0.00   28.8    65    4.8   349     6.5   865.3    0.00 
 341   21:20   0.00   27.4    67    4.2    10     5.6   865.5    0.00 
 341   21:30   0.00   26.7    70    3.1    30     4.2   865.6    0.00 
 341   21:40   0.00   26.5    72    1.3    62     2.6   865.7    0.00 
 341   21:50   0.00   26.4    73    1.0   307     3.8   865.7    0.00 
 341   22:00   0.00   26.2    74    3.4   302     5.3   865.8    0.00 
 341   22:10   0.00   26.6    71    3.3   352     4.4   865.9    0.00 
 341   22:20   0.00   27.4    70    0.7   352     2.5   866.1    0.00 
 341   22:30   0.00   25.5    72    0.5    70     2.6   866.3    0.00 
 341   22:40   0.00   24.9    77    1.5    15     4.7   866.3    0.00 
 341   22:50   0.00   23.6    71    4.6   323     6.6   866.4    0.00 
 341   23:00   0.00   21.1    78    3.6   150     5.4   866.6    0.00 
 341   23:10   0.00   22.4    83    3.2   154     5.0   866.7    0.00 
 341   23:20   0.00   23.9    80    0.6   164     2.6   866.8    0.00 
 341   23:30   0.00   24.3    77    3.3   289     4.8   866.9    0.00 
 341   23:40   0.00   23.2    76    2.2   130     4.2   867.1    0.00 
 341   23:50   0.00   22.0    82    0.6   131     1.7   867.0    0.00 
 342    0:00   0.00   21.8    82    1.8   118     4.7   867.2    0.00 
 342    0:10   0.00   20.6    85    1.2   115     3.3   867.3    0.00 

Return to Sparks, Nevada, UNR Ag Experiment Farm graphs page.


Western Regional Climate Center,wrcc@dri.edu